LOWI Airport Information

Runway Information
Runway 08 Length 6562 ft width 148 ft
Elevation 1906 ft Threshold 339 ft Heading 81
Runway 26 Length 6562 ft Width 148 ft
Elevation 1893 ft Threshold 198 ft Heading 261
Airport Frequencies
Type APP Name APP Frequency 119.275 MHZ
Type ATIS Name ATIS Frequency 126.025 MHZ
Type GND Crew Name Frequency 121.8 MHZ
Type GND Crew Name Frequency 121.9 MHZ
Type TWR Name TWR Frequency 120.1 MHZ
Airport Navaids
Type NDB Name Innsbruck Frequency 420 KHZ
Type NDB Name Kuhtai Frequency 413 KHZ
Airport Weather Information & NOTAM
ADDS - METARS form results

(2126 UTC 17 December 2017)
 
METAR text: LOWI 172120Z VRB01KT 9999 SCT006 BKN075 M02/M03 Q1025 R08/19//95 NOSIG
Conditions at: LOWI (INNSBRUCK AIRPOR, AT) observed 2120 UTC 17 December 2017
Temperature: -2.0°C (28°F)
Dewpoint: -3.0°C (27°F) [RH = 93%]
Pressure (altimeter): 30.27 inches Hg (1025.0 mb)
Winds: variable direction winds at 1 MPH (1 knots; 0.5 m/s)
Visibility: 6 or more miles (10+ km)
Ceiling: 7500 feet AGL
Clouds: scattered clouds at 600 feet AGL
broken clouds at 7500 feet AGL
Weather: no significant weather observed at this time

METAR text: LOWI 172050Z VRB02KT 9999 SCT006 BKN075 M02/M03 Q1025 R08/19//95 NOSIG
Conditions at: LOWI (INNSBRUCK AIRPOR, AT) observed 2050 UTC 17 December 2017
Temperature: -2.0°C (28°F)
Dewpoint: -3.0°C (27°F) [RH = 93%]
Pressure (altimeter): 30.27 inches Hg (1025.0 mb)
Winds: variable direction winds at 2 MPH (2 knots; 1.0 m/s)
Visibility: 6 or more miles (10+ km)
Ceiling: 7500 feet AGL
Clouds: scattered clouds at 600 feet AGL
broken clouds at 7500 feet AGL
Weather: no significant weather observed at this time